Time;durP1;ratioP1;P1;durP2;ratioP2;P2;SDS_P1;SDS_P2;PMS_P1;PMS_P2;Temp;Humidity;BMP_temperature;BMP_pressure;BME280_temperature;BME280_humidity;BME280_pressure;Samples;Min_cycle;Max_cycle;Signal;HPM_P1;HPM_P2
2023/08/17 00:00:35;;;;;;;10.93;4.70;;;18.90;99.90;;;-144.05;90.84;56952.91;6131744;23;20009;-88
2023/08/17 00:03:00;;;;;;;11.32;5.53;;;15.20;99.90;;;-144.05;91.10;56961.41;6130958;23;20020;-89
2023/08/17 00:05:27;;;;;;;11.32;5.90;;;17.20;99.90;;;-144.05;91.14;56972.03;6130525;23;20044;-91
2023/08/17 00:07:53;;;;;;;8.07;5.20;;;15.00;99.90;;;-144.05;91.46;56963.53;6131796;23;20005;-89
2023/08/17 00:10:19;;;;;;;9.27;5.40;;;18.00;99.90;;;-144.05;91.46;56957.16;6136928;23;20009;-89
2023/08/17 00:12:44;;;;;;;11.40;5.70;;;18.30;99.90;;;-144.05;91.99;56972.03;6142571;23;20013;-87
2023/08/17 00:15:11;;;;;;;10.30;5.65;;;;;;;-144.05;92.16;56950.78;6139712;23;20137;-90
2023/08/17 00:17:37;;;;;;;8.07;4.90;;;;;;;-144.05;92.16;56952.91;6163905;23;20100;-90
2023/08/17 00:20:05;;;;;;;10.63;5.50;;;;;;;-144.05;92.86;56944.41;6137864;23;20008;-91
2023/08/17 00:22:31;;;;;;;10.85;5.28;;;;;;;-144.05;93.00;56946.53;6136719;23;20021;-89
2023/08/17 00:24:57;;;;;;;10.65;5.10;;;17.70;99.90;;;-144.05;93.37;56957.16;6137335;23;20009;-91
2023/08/17 00:27:22;;;;;;;8.52;5.18;;;18.40;99.90;;;-144.05;93.96;56933.78;6143307;23;20177;-91
2023/08/17 00:29:48;;;;;;;10.38;5.47;;;17.80;99.90;;;-144.05;94.21;56944.41;6163201;23;20006;-90
2023/08/17 00:32:14;;;;;;;11.38;5.43;;;;;;;-144.05;94.99;56965.66;6166297;23;20002;-87
2023/08/17 00:34:42;;;;;;;9.80;5.10;;;14.70;99.90;;;-144.05;94.52;56967.78;6167849;23;20014;-87
2023/08/17 00:37:08;;;;;;;10.10;5.10;;;16.80;99.90;;;-144.05;95.01;56967.78;6163379;23;20032;-90
2023/08/17 00:39:34;;;;;;;9.13;5.22;;;17.50;99.90;;;-144.05;94.64;56955.03;6165277;23;20012;-89
2023/08/17 00:42:00;;;;;;;6.88;4.35;;;;;;;-144.05;94.44;56957.16;6164837;23;20010;-92
2023/08/17 00:44:26;;;;;;;5.30;4.40;;;;;;;-144.05;94.46;56950.78;6166475;23;20013;-92
2023/08/17 00:46:52;;;;;;;7.10;3.42;;;14.80;99.90;;;-144.05;94.47;56959.28;6165889;23;20446;-88
2023/08/17 00:49:18;;;;;;;10.32;4.65;;;14.60;99.90;;;-144.05;94.27;56948.66;6162247;23;20072;-90
2023/08/17 00:51:45;;;;;;;10.02;4.70;;;;;;;-144.05;94.61;56950.78;6162680;23;20018;-90
2023/08/17 00:54:12;;;;;;;7.78;4.18;;;17.90;99.90;;;-144.05;94.47;56986.91;6162997;23;20444;-89
2023/08/17 00:56:38;;;;;;;6.25;3.42;;;16.60;99.90;;;-144.05;94.76;56948.66;6162966;23;20452;-89
2023/08/17 00:59:06;;;;;;;4.63;2.90;;;17.30;99.90;;;-144.05;94.13;56935.91;6164321;23;20005;-89
2023/08/17 01:01:32;;;;;;;5.57;3.83;;;;;;;-144.05;93.62;56974.16;6164555;23;20444;-92
2023/08/17 01:03:59;;;;;;;4.82;3.60;;;;;;;-144.05;93.35;56967.78;6165952;23;20016;-90
2023/08/17 01:06:25;;;;;;;6.68;3.20;;;14.90;99.90;;;-144.05;94.09;56933.78;6165370;23;20006;-88
2023/08/17 01:08:51;;;;;;;6.25;2.97;;;;;;;-144.05;93.37;56931.66;6164119;23;20037;-90
2023/08/17 01:11:29;;;;;;;4.20;3.03;;;;;;;-144.05;93.30;56955.03;6163368;23;20017;-91
2023/08/17 01:14:17;;;;;;;6.13;3.03;;;17.70;99.90;;;-144.05;93.02;56976.28;6163134;23;20006;-90
2023/08/17 01:17:03;;;;;;;5.30;3.40;;;18.00;99.90;;;-144.05;92.99;56963.53;6164400;23;20005;-93
2023/08/17 01:19:37;;;;;;;;;;;16.50;99.90;;;-144.05;93.75;56955.03;6163102;23;20009;-88
2023/08/17 01:22:14;;;;;;;5.35;3.72;;;16.50;99.90;;;-144.05;93.50;56965.66;6164304;23;19920;-90
2023/08/17 01:24:40;;;;;;;5.18;3.85;;;;;;;-144.05;93.71;56929.53;6168805;23;20006;-91
2023/08/17 01:27:06;;;;;;;6.07;4.40;;;18.20;99.90;;;-144.05;93.95;56948.66;6168617;23;20083;-91
2023/08/17 01:29:33;;;;;;;5.88;4.18;;;;;;;-144.05;93.89;56955.03;6170086;23;20387;-90
2023/08/17 01:32:35;;;;;;;9.52;4.43;;;16.40;99.90;;;-144.05;94.33;56972.03;6169262;23;20010;-89
2023/08/17 01:35:33;;;;;;;5.40;4.28;;;17.30;99.90;;;-144.05;94.40;56950.78;6167066;23;20020;-91
2023/08/17 01:38:07;;;;;;;6.43;5.13;;;16.40;99.90;;;-144.05;94.02;56944.41;6167704;23;20002;-89
2023/08/17 01:40:34;;;;;;;11.90;7.00;;;14.40;99.90;;;-144.05;93.85;56961.41;6162966;23;20036;-93
2023/08/17 01:43:03;;;;;;;10.23;6.18;;;16.40;99.90;;;-144.05;93.73;56955.03;6162298;23;20001;-91
2023/08/17 01:45:30;;;;;;;10.05;6.60;;;;;;;-144.05;94.06;56969.91;6164796;23;20010;-91
2023/08/17 01:47:56;;;;;;;11.20;5.93;;;;;;;-144.05;94.33;56946.53;6164122;23;20009;-89
2023/08/17 01:50:22;;;;;;;12.15;6.22;;;;;;;-144.05;94.20;56942.28;6162423;23;20044;-89
2023/08/17 01:52:50;;;;;;;13.23;7.05;;;;;;;-144.05;94.02;56955.03;6164348;23;20009;-88
2023/08/17 01:55:17;;;;;;;8.80;6.80;;;17.40;99.90;;;-144.05;93.78;56957.16;6170884;23;20029;-89
2023/08/17 01:57:43;;;;;;;9.10;5.90;;;17.40;99.90;;;-144.05;93.65;56965.66;6192104;23;20020;-88
2023/08/17 02:00:10;;;;;;;10.15;6.55;;;17.70;99.90;;;-144.05;93.63;56974.16;6164838;23;20005;-88
2023/08/17 02:02:37;;;;;;;10.07;6.78;;;;;;;-144.05;93.82;56942.28;6166205;23;20440;-92
2023/08/17 02:05:03;;;;;;;10.38;6.97;;;18.00;99.90;;;-144.05;94.16;56967.78;6164794;23;20006;-89
2023/08/17 02:07:29;;;;;;;9.77;7.35;;;17.60;99.90;;;-144.05;94.05;56952.91;6165363;23;20005;-89
2023/08/17 02:09:55;;;;;;;11.77;7.40;;;;;;;-144.05;94.09;56948.66;6164504;23;20054;-91
2023/08/17 02:12:22;;;;;;;11.70;7.03;;;;;;;-144.05;94.16;56959.28;6166270;23;20009;-89
2023/08/17 02:14:48;;;;;;;14.15;8.40;;;;;;;-144.05;94.21;56942.28;6162370;23;20101;-90
2023/08/17 02:17:16;;;;;;;11.48;8.68;;;18.00;99.90;;;-144.05;94.07;56950.78;6160958;23;20093;-91
2023/08/17 02:19:43;;;;;;;11.30;7.82;;;;;;;-144.05;94.21;56959.28;6159591;23;20037;-91
2023/08/17 02:22:10;;;;;;;15.95;8.95;;;17.90;99.90;;;-144.05;94.09;56976.28;6159022;23;20010;-90
2023/08/17 02:24:36;;;;;;;13.25;7.95;;;14.40;99.90;;;-144.05;94.22;56967.78;6159339;23;20013;-90
2023/08/17 02:27:03;;;;;;;12.82;9.18;;;17.70;99.90;;;-144.05;93.86;56948.66;6158902;23;20005;-92
2023/08/17 02:29:28;;;;;;;11.48;7.70;;;17.40;99.90;;;-144.05;93.98;56963.53;6157514;23;20005;-89
2023/08/17 02:31:55;;;;;;;14.85;8.50;;;;;;;-144.05;93.85;56952.91;6160635;23;20013;-91
2023/08/17 02:34:21;;;;;;;10.85;7.10;;;;;;;-144.05;93.42;56940.16;6159336;23;20278;-90
2023/08/17 02:36:47;;;;;;;13.10;8.82;;;;;;;-144.05;93.67;56963.53;6158864;23;20009;-89
2023/08/17 02:39:14;;;;;;;9.38;7.38;;;16.30;99.90;;;-144.05;93.59;56942.28;6160019;23;20095;-91
2023/08/17 02:41:40;;;;;;;13.45;7.93;;;17.40;99.90;;;-144.05;93.57;56972.03;6160489;23;20374;-88
2023/08/17 02:44:07;;;;;;;8.13;6.78;;;;;;;-144.05;93.73;56969.91;6159724;23;20044;-91
2023/08/17 02:46:32;;;;;;;11.85;7.60;;;17.90;99.90;;;-144.05;93.68;56921.06;6157093;23;20009;-89
2023/08/17 02:48:58;;;;;;;13.77;8.27;;;17.60;99.90;;;-144.05;93.77;56944.41;6159558;23;20012;-89
2023/08/17 02:51:24;;;;;;;14.52;8.38;;;;;;;-144.05;93.65;56963.53;6155035;23;20020;-88
2023/08/17 02:53:51;;;;;;;11.65;7.20;;;;;;;-144.05;93.47;56950.78;6154879;23;20033;-89
2023/08/17 02:56:17;;;;;;;11.40;7.50;;;;;;;-144.05;93.54;56952.91;6157811;23;20012;-88
2023/08/17 02:58:43;;;;;;;10.13;6.55;;;17.30;99.90;;;-144.05;93.32;56938.03;6155074;23;20090;-89
2023/08/17 03:01:10;;;;;;;11.90;7.03;;;;;;;-144.05;93.74;56942.28;6155942;23;20032;-89
2023/08/17 03:03:36;;;;;;;16.45;7.15;;;;;;;-144.05;93.41;56940.16;6154927;23;20020;-88
2023/08/17 03:06:04;;;;;;;13.15;7.32;;;17.60;99.90;;;-144.05;93.42;56955.03;6157099;23;20001;-91
2023/08/17 03:08:29;;;;;;;9.70;6.72;;;14.50;99.90;;;-144.05;93.07;56948.66;6155500;23;20001;-87
2023/08/17 03:10:56;;;;;;;11.50;6.22;;;;;;;-144.05;93.37;56935.91;6155193;23;20029;-89
2023/08/17 03:13:22;;;;;;;11.13;6.88;;;;;;;-144.05;93.45;56961.41;6156064;23;20005;-91
2023/08/17 03:15:48;;;;;;;11.32;6.45;;;;;;;-144.05;93.15;56957.16;6155919;23;20017;-91
2023/08/17 03:18:15;;;;;;;14.85;7.00;;;;;;;-144.05;93.30;56967.78;6155485;23;20012;-86
2023/08/17 03:20:41;;;;;;;10.30;6.65;;;;;;;-144.05;92.83;56984.78;6155595;23;20248;-91
2023/08/17 03:23:08;;;;;;;10.43;6.60;;;17.30;99.90;;;-144.05;93.01;56933.78;6156047;23;20020;-89
2023/08/17 03:25:34;;;;;;;11.73;6.93;;;;;;;-144.05;93.45;56948.66;6157832;23;20088;-88
2023/08/17 03:28:01;;;;;;;9.40;6.43;;;17.70;99.90;;;-144.05;93.29;56959.28;6155298;23;20116;-88
2023/08/17 03:30:27;;;;;;;9.02;5.57;;;17.20;99.90;;;-144.05;93.40;56955.03;6154832;23;20016;-89
2023/08/17 03:32:53;;;;;;;10.65;5.93;;;18.10;99.90;;;-144.05;93.17;56963.53;6158138;23;20424;-88
2023/08/17 03:35:18;;;;;;;9.68;6.20;;;18.00;99.90;;;-144.05;93.18;56963.53;6157527;23;20144;-89
2023/08/17 03:37:45;;;;;;;10.88;6.75;;;;;;;-144.05;93.49;56938.03;6157769;23;20340;-88
2023/08/17 03:40:11;;;;;;;12.35;6.25;;;17.70;99.90;;;-144.05;93.50;56959.28;6158482;23;20439;-88
2023/08/17 03:42:37;;;;;;;9.10;5.65;;;17.60;99.90;;;-144.05;93.39;56972.03;6157714;23;20341;-88
2023/08/17 03:45:04;;;;;;;9.65;6.97;;;14.20;99.90;;;-144.05;93.17;56984.78;6161912;23;20033;-88
2023/08/17 03:47:31;;;;;;;10.80;6.63;;;;;;;-144.05;93.05;56959.28;6165563;23;20005;-85
2023/08/17 03:49:57;;;;;;;9.60;6.20;;;14.50;99.90;;;-144.05;93.44;56963.53;6165758;23;20428;-88
2023/08/17 03:52:23;;;;;;;12.82;7.35;;;;;;;-144.05;94.46;56965.66;6166485;23;20436;-88
2023/08/17 03:54:49;;;;;;;9.15;6.40;;;;;;;-144.05;94.45;56925.28;6175584;23;20052;-85
2023/08/17 03:57:15;;;;;;;9.80;6.78;;;;;;;-144.05;93.71;56980.53;6178453;23;20013;-88
2023/08/17 03:59:43;;;;;;;10.02;7.57;;;16.30;99.90;;;-144.05;94.98;56955.03;6168844;23;20048;-88
2023/08/17 04:02:09;;;;;;;9.45;6.43;;;17.40;99.90;;;-144.05;95.58;56963.53;6169312;23;20021;-89
2023/08/17 04:04:35;;;;;;;13.10;7.82;;;14.20;99.90;;;-144.05;95.75;56950.78;6168694;23;20005;-89
2023/08/17 04:07:01;;;;;;;10.63;7.25;;;17.80;99.90;;;-144.05;95.93;56972.03;6163010;23;20087;-88
2023/08/17 04:09:27;;;;;;;8.82;6.47;;;;;;;-144.05;96.01;56948.66;6166251;23;20006;-87
2023/08/17 04:11:54;;;;;;;11.65;7.28;;;;;;;-144.05;96.07;56965.66;6164271;23;20041;-88
2023/08/17 04:14:20;;;;;;;9.65;6.88;;;17.80;99.90;;;-144.05;96.29;56955.03;6164350;23;20025;-90
2023/08/17 04:16:46;;;;;;;13.18;7.00;;;;;;;-144.05;96.25;56980.53;6164548;23;20009;-89
2023/08/17 04:19:12;;;;;;;10.75;7.32;;;17.40;99.90;;;-144.05;96.12;56959.28;6188261;23;20016;-88
2023/08/17 04:21:38;;;;;;;13.88;9.25;;;;;;;-144.05;96.44;56931.66;6164047;23;20369;-88
2023/08/17 04:24:05;;;;;;;15.45;10.48;;;17.90;99.90;;;-144.05;96.65;56972.03;6164806;23;20425;-91
2023/08/17 04:26:31;;;;;;;13.88;10.73;;;;;;;-144.05;96.79;56967.78;6164576;23;20010;-87
2023/08/17 04:28:57;;;;;;;18.73;10.40;;;17.50;99.90;;;-144.05;96.83;56959.28;6168669;23;20435;-88
2023/08/17 04:31:23;;;;;;;16.10;10.38;;;17.80;99.90;;;-144.05;96.92;56955.03;6169415;23;20016;-89
2023/08/17 04:33:50;;;;;;;16.27;10.48;;;;;;;-144.05;96.44;56950.78;6172417;23;20024;-89
2023/08/17 04:36:16;;;;;;;17.13;10.75;;;;;;;-144.05;96.72;56955.03;6170592;23;20051;-89
2023/08/17 04:38:42;;;;;;;15.18;10.27;;;;;;;-144.05;96.81;56955.03;6195277;23;20032;-89
2023/08/17 04:41:09;;;;;;;14.85;10.05;;;;;;;-144.05;96.79;56938.03;6169689;23;20012;-89
2023/08/17 04:43:34;;;;;;;14.93;10.60;;;14.20;99.90;;;-144.05;96.38;56974.16;6169337;23;20055;-88
2023/08/17 04:46:00;;;;;;;10.80;9.23;;;17.60;99.90;;;-144.05;96.54;56959.28;6195803;23;19997;-90
2023/08/17 04:48:26;;;;;;;12.43;10.50;;;17.50;99.90;;;-144.05;96.13;56984.78;6170085;23;20001;-89
2023/08/17 04:50:52;;;;;;;14.10;9.27;;;18.10;99.90;;;-144.05;96.00;56942.28;6195247;23;20009;-87
2023/08/17 04:53:18;;;;;;;10.80;8.20;;;17.20;99.90;;;-144.05;96.03;56965.66;6167360;23;20002;-89
2023/08/17 04:55:44;;;;;;;11.63;9.32;;;;;;;-144.05;95.79;56972.03;6192459;23;20068;-88
2023/08/17 04:58:10;;;;;;;12.80;7.78;;;17.40;99.90;;;-144.05;95.93;56952.91;6168549;23;20036;-88
2023/08/17 05:00:37;;;;;;;14.10;8.18;;;16.30;99.90;;;-144.05;94.31;56969.91;6194906;23;20009;-87
2023/08/17 05:03:04;;;;;;;13.13;9.05;;;17.20;99.90;;;-144.05;93.73;56957.16;6169401;23;20096;-90
2023/08/17 05:05:30;;;;;;;13.68;8.20;;;;;;;-144.05;93.65;56963.53;6167960;23;20028;-88
2023/08/17 05:07:57;;;;;;;14.10;10.10;;;;;;;-144.05;93.38;56940.16;6194982;23;20005;-86
2023/08/17 05:10:23;;;;;;;12.52;7.90;;;;;;;-144.05;94.31;56982.66;6169032;23;20005;-89
2023/08/17 05:12:49;;;;;;;16.88;10.20;;;;;;;-144.05;95.58;56950.78;6171190;23;20005;-88
2023/08/17 05:15:15;;;;;;;17.10;10.25;;;;;;;-144.05;93.91;56976.28;6172096;23;20005;-89
2023/08/17 05:17:42;;;;;;;14.38;10.07;;;;;;;-144.05;93.67;56957.16;6170635;23;20012;-89
2023/08/17 05:20:08;;;;;;;13.90;9.90;;;17.70;99.90;;;-144.05;93.89;56940.16;6170481;23;20009;-88
2023/08/17 05:22:35;;;;;;;13.65;9.07;;;;;;;-144.05;93.47;56963.53;6195724;23;20019;-87
2023/08/17 05:25:01;;;;;;;16.52;10.20;;;17.40;99.90;;;-144.05;93.73;56961.41;6169296;23;20008;-86
2023/08/17 05:27:27;;;;;;;16.52;10.27;;;;;;;-144.05;94.42;56938.03;6196048;23;20005;-87
2023/08/17 05:29:54;;;;;;;12.65;9.77;;;;;;;-144.05;93.65;56961.41;6170377;23;20495;-86
2023/08/17 05:32:20;;;;;;;23.50;11.82;;;;;;;-144.05;93.53;56965.66;6194568;23;20032;-89
2023/08/17 05:34:47;;;;;;;18.38;11.10;;;16.40;99.90;;;-144.05;92.94;56967.78;6200892;23;20005;-85
2023/08/17 05:37:15;;;;;;;18.75;10.98;;;18.20;99.90;;;-144.05;92.92;56959.28;6173186;23;20005;-87
2023/08/17 05:39:41;;;;;;;17.23;12.15;;;17.80;99.90;;;-144.05;92.74;56974.16;6173383;23;20065;-87
2023/08/17 05:42:07;;;;;;;16.13;11.27;;;17.70;99.90;;;-144.05;92.61;56963.53;6173173;23;20005;-88
2023/08/17 05:44:34;;;;;;;13.38;10.02;;;17.60;99.90;;;-144.05;92.51;56974.16;6173893;23;20005;-85
2023/08/17 05:47:03;;;;;;;16.17;10.27;;;;;;;-144.05;92.48;56969.91;6201157;23;20020;-89
2023/08/17 05:49:29;;;;;;;14.95;10.93;;;;;;;-144.05;92.47;56967.78;6171908;23;20005;-88
2023/08/17 05:51:57;;;;;;;13.95;9.85;;;16.40;99.90;;;-144.05;92.62;56965.66;6171901;23;20013;-89
2023/08/17 05:54:23;;;;;;;16.52;10.40;;;18.20;99.90;;;-144.05;92.61;56946.53;6176503;23;20258;-85
2023/08/17 05:56:50;;;;;;;16.85;11.88;;;18.00;99.90;;;-144.05;92.07;56963.53;6182053;23;20032;-88
2023/08/17 05:59:16;;;;;;;20.08;11.20;;;17.80;99.90;;;-144.05;92.24;56967.78;6169604;23;20005;-88
2023/08/17 06:01:43;;;;;;;16.50;11.45;;;;;;;-144.05;92.31;56938.03;6169424;23;20009;-85
2023/08/17 06:04:09;;;;;;;16.48;9.80;;;14.60;99.90;;;-144.05;92.41;56938.03;6170122;23;20499;-87
2023/08/17 06:06:35;;;;;;;11.18;8.63;;;;;;;-144.05;92.38;56982.66;6193909;23;20001;-88
2023/08/17 06:09:02;;;;;;;16.48;11.48;;;;;;;-144.05;92.23;56955.03;6168469;23;20013;-88
2023/08/17 06:11:27;;;;;;;20.25;11.95;;;18.10;99.90;;;-144.05;92.21;56969.91;6169863;23;20455;-88
2023/08/17 06:13:53;;;;;;;19.38;12.43;;;17.80;99.90;;;-144.05;92.13;56965.66;6167747;23;20009;-89
2023/08/17 06:16:19;;;;;;;23.17;12.85;;;;;;;-144.05;92.11;56959.28;6192462;23;20101;-90
2023/08/17 06:18:52;;;;;;;23.95;14.02;;;17.20;99.90;;;-144.05;92.43;56944.41;6166745;23;20032;-89
2023/08/17 06:21:18;;;;;;;13.75;9.68;;;;;;;-144.05;92.34;56938.03;6168786;23;20015;-88
2023/08/17 06:23:44;;;;;;;18.67;12.20;;;17.70;99.90;;;-144.05;91.86;56946.53;6169866;23;20020;-88
2023/08/17 06:26:10;;;;;;;18.73;11.02;;;17.80;99.90;;;-144.05;92.09;56989.00;6193682;23;20001;-87
2023/08/17 06:28:36;;;;;;;11.88;9.63;;;17.40;99.90;;;-144.05;91.32;56963.53;6163220;23;20384;-88
2023/08/17 06:31:02;;;;;;;15.43;9.20;;;17.00;99.90;;;-144.05;91.56;56938.03;6163616;23;20009;-89
2023/08/17 06:33:28;;;;;;;11.43;8.80;;;16.60;99.90;;;-144.05;90.95;56976.28;6163539;23;20001;-88
2023/08/17 06:35:54;;;;;;;16.67;9.88;;;;;;;-144.05;91.28;56952.91;6163734;23;20020;-89
2023/08/17 06:38:20;;;;;;;13.45;9.07;;;18.00;99.90;;;-144.05;91.35;56965.66;6162308;23;20005;-89
2023/08/17 06:40:46;;;;;;;18.42;10.48;;;17.30;99.90;;;-144.05;91.08;56980.53;6165218;23;20032;-89
2023/08/17 06:43:12;;;;;;;18.27;9.77;;;14.60;99.90;;;-144.05;90.70;56984.78;6163530;23;20009;-89
2023/08/17 06:45:39;;;;;;;22.92;13.25;;;18.10;99.90;;;-144.05;90.77;56963.53;6163602;23;20017;-88
2023/08/17 06:48:06;;;;;;;20.83;10.93;;;18.30;99.90;;;-144.05;90.64;56955.03;6165487;23;20482;-88
2023/08/17 06:50:32;;;;;;;18.45;12.50;;;17.90;99.90;;;-144.05;90.88;56974.16;6161137;23;20443;-89
2023/08/17 06:52:58;;;;;;;22.58;11.10;;;;;;;-144.05;90.70;56959.28;6161630;23;20009;-86
2023/08/17 06:55:24;;;;;;;17.25;10.32;;;;;;;-144.05;90.66;56976.28;6164153;23;20016;-87
2023/08/17 06:57:51;;;;;;;19.30;12.63;;;;;;;-144.05;90.42;56967.78;6163153;23;20005;-89
2023/08/17 07:00:27;;;;;;;21.25;12.07;;;14.80;99.90;;;-144.05;90.92;56967.78;6189159;23;20492;-89
2023/08/17 07:02:52;;;;;;;16.35;13.93;;;18.40;99.90;;;-144.05;90.87;56955.03;6166195;23;20013;-87
2023/08/17 07:05:18;;;;;;;22.90;13.15;;;18.20;99.90;;;-144.05;90.45;56967.78;6165176;23;20013;-88
2023/08/17 07:07:45;;;;;;;23.90;12.45;;;;;;;-144.05;90.30;56948.66;6163357;23;20009;-87
2023/08/17 07:10:11;;;;;;;20.48;13.60;;;14.90;99.90;;;-144.05;90.47;56967.78;6185890;23;20413;-86
2023/08/17 07:12:38;;;;;;;20.35;12.57;;;18.50;99.90;;;-144.05;89.91;56957.16;6158900;23;20016;-88
2023/08/17 07:15:07;;;;;;;22.55;13.65;;;16.90;99.90;;;-144.05;89.69;56969.91;6159280;23;20006;-90
2023/08/17 07:17:37;;;;;;;17.98;12.27;;;18.50;99.90;;;-144.05;89.71;56969.91;6157691;23;20008;-86
2023/08/17 07:20:07;;;;;;;21.30;11.90;;;18.20;99.90;;;-144.05;90.01;56969.91;6157156;23;20080;-87
2023/08/17 07:22:36;;;;;;;17.73;12.05;;;18.10;99.90;;;-144.05;89.61;56959.28;6158220;23;20002;-88
2023/08/17 07:25:03;;;;;;;19.02;13.18;;;17.50;99.90;;;-144.05;90.19;56974.16;6158798;23;20407;-87
2023/08/17 07:27:30;;;;;;;19.20;11.80;;;17.00;99.90;;;-144.05;89.64;56976.28;6162763;23;20037;-90
2023/08/17 07:29:56;;;;;;;19.90;13.45;;;;;;;-144.05;88.96;56961.41;6161569;23;20056;-89
2023/08/17 07:32:24;;;;;;;18.77;13.10;;;;;;;-144.05;88.42;56959.28;6162999;23;20184;-90
2023/08/17 07:34:50;;;;;;;24.65;14.13;;;18.80;99.90;;;-144.05;88.36;56976.28;6186390;23;20062;-87
2023/08/17 07:37:17;;;;;;;23.90;14.40;;;;;;;-144.05;88.49;56972.03;6160670;23;20006;-90
2023/08/17 07:39:42;;;;;;;20.10;13.90;;;17.90;99.90;;;-144.05;88.41;56972.03;6161432;23;20380;-87
2023/08/17 07:42:08;;;;;;;21.27;13.07;;;17.50;99.90;;;-144.05;88.14;56991.13;6163488;23;20009;-89
2023/08/17 07:44:34;;;;;;;20.02;13.98;;;18.00;99.90;;;-144.05;87.97;56959.28;6164150;23;20016;-89
2023/08/17 07:47:00;;;;;;;23.30;14.45;;;17.20;99.90;;;-144.05;87.81;56976.28;6164108;23;20040;-89
2023/08/17 07:49:29;;;;;;;24.20;17.20;;;15.10;99.90;;;-144.05;87.83;56974.16;6162938;23;20009;-86
2023/08/17 07:51:54;;;;;;;25.17;16.40;;;18.50;99.90;;;-144.05;87.55;56972.03;6162162;23;20458;-88
2023/08/17 07:54:23;;;;;;;35.30;19.67;;;18.50;99.90;;;-144.05;87.47;56984.78;6168095;23;19994;-85
2023/08/17 07:56:49;;;;;;;24.45;16.75;;;19.00;99.90;;;-144.05;87.12;56961.41;6181536;23;20001;-85
2023/08/17 07:59:15;;;;;;;25.67;17.52;;;17.70;99.90;;;-144.05;87.35;56986.91;6165750;23;20365;-86
2023/08/17 08:01:42;;;;;;;22.80;16.98;;;;;;;-144.05;87.03;56967.78;6161381;23;20195;-88
2023/08/17 08:04:07;;;;;;;21.25;16.80;;;15.50;99.90;;;-144.05;87.11;56993.25;6160632;23;20005;-87
2023/08/17 08:06:33;;;;;;;27.55;16.63;;;17.20;99.90;;;-144.05;87.13;56944.41;6161006;23;20002;-87
2023/08/17 08:08:59;;;;;;;23.45;14.52;;;;;;;-144.05;87.07;56959.28;6161349;23;20033;-88
2023/08/17 08:11:27;;;;;;;17.98;13.20;;;19.00;99.90;;;-144.05;86.78;56967.78;6163405;23;20005;-88
2023/08/17 08:13:53;;;;;;;22.92;15.20;;;;;;;-144.05;86.53;56991.13;6163187;23;20010;-89
2023/08/17 08:16:19;;;;;;;23.75;14.48;;;15.80;99.90;;;-144.05;86.06;56965.66;6162966;23;20500;-91
2023/08/17 08:18:45;;;;;;;21.65;14.77;;;;;;;-144.05;85.61;56982.66;6162548;23;20032;-88
2023/08/17 08:21:12;;;;;;;22.23;13.60;;;;;;;-144.05;85.13;56995.38;6163941;23;20009;-89
2023/08/17 08:23:37;;;;;;;21.83;14.88;;;19.00;99.90;;;-144.05;84.59;56972.03;6162599;23;20005;-88
2023/08/17 08:26:04;;;;;;;20.80;13.77;;;;;;;-144.05;85.11;56989.00;6163960;23;20033;-89
2023/08/17 08:28:30;;;;;;;16.95;13.38;;;;;;;-144.05;84.74;56989.00;6162263;23;20444;-90
2023/08/17 08:31:02;;;;;;;21.63;15.15;;;15.90;99.90;;;-144.05;84.20;56935.91;6163423;23;20052;-90
2023/08/17 08:33:29;;;;;;;18.92;14.65;;;19.70;99.90;;;-144.05;83.81;56978.41;6162660;23;20010;-86
2023/08/17 08:35:56;;;;;;;25.83;18.52;;;;;;;-144.05;84.07;56989.00;6162555;23;20029;-88
2023/08/17 08:38:24;;;;;;;22.60;16.80;;;18.90;99.90;;;-144.05;84.38;56976.28;6161469;23;20033;-90
2023/08/17 08:40:51;;;;;;;16.33;12.90;;;17.90;99.90;;;-144.05;84.41;56982.66;6164438;23;20044;-88
2023/08/17 08:43:18;;;;;;;19.10;13.20;;;18.00;99.90;;;-144.05;84.69;56978.41;6165457;23;20069;-86
2023/08/17 08:45:45;;;;;;;20.10;13.88;;;19.40;99.90;;;-144.05;84.69;56993.25;6163987;23;20001;-88
2023/08/17 08:48:17;;;;;;;16.98;11.88;;;18.10;99.90;;;-144.05;84.61;56984.78;6188986;23;20017;-90
2023/08/17 08:50:47;;;;;;;21.05;14.60;;;18.10;99.90;;;-144.05;83.97;56984.78;6162294;23;20006;-90
2023/08/17 08:53:28;;;;;;;24.70;17.80;;;19.30;99.90;;;-144.05;83.92;56963.53;6161543;23;20032;-89
2023/08/17 08:56:00;;;;;;;26.00;19.55;;;19.00;99.90;;;-144.05;84.27;56972.03;6162260;23;20014;-90
2023/08/17 08:58:28;;;;;;;16.83;13.63;;;18.70;99.90;;;-144.05;84.34;56942.28;6162032;23;20016;-88
2023/08/17 09:00:57;;;;;;;21.08;16.08;;;18.70;99.90;;;-144.05;84.43;56997.50;6161643;23;20336;-91
2023/08/17 09:03:26;;;;;;;19.40;13.38;;;18.00;99.90;;;-144.05;84.68;56997.50;6164057;23;20009;-87
2023/08/17 09:05:53;;;;;;;25.00;17.58;;;18.00;99.90;;;-144.05;84.98;56972.03;6167768;23;20064;-89
2023/08/17 09:08:29;;;;;;;16.10;12.63;;;18.10;99.90;;;-144.05;85.04;57003.88;6171414;23;20412;-89
2023/08/17 09:10:55;;;;;;;26.10;15.82;;;19.30;99.90;;;-144.05;85.01;56965.66;6172508;23;20001;-91
2023/08/17 09:13:21;;;;;;;16.20;13.23;;;19.00;99.90;;;-144.05;85.12;56948.66;6169150;23;20028;-90
2023/08/17 09:15:48;;;;;;;19.75;14.63;;;;;;;-144.05;85.12;56974.16;6163717;23;20010;-87
2023/08/17 09:18:16;;;;;;;16.70;13.63;;;19.70;99.90;;;-144.05;85.45;56967.78;6163453;23;20005;-87
2023/08/17 09:20:46;;;;;;;19.05;12.73;;;18.10;99.90;;;-144.05;85.82;56965.66;6164021;23;20088;-87
2023/08/17 09:23:21;;;;;;;16.85;13.38;;;19.30;99.90;;;-144.05;86.01;56989.00;6164099;23;20095;-90
2023/08/17 09:25:52;;;;;;;15.73;11.80;;;19.80;99.90;;;-144.05;85.73;56967.78;6164231;23;20529;-90
2023/08/17 09:28:20;;;;;;;13.45;10.02;;;19.80;99.90;;;-144.05;85.77;56963.53;6165957;23;20037;-89
2023/08/17 09:31:05;;;;;;;18.45;13.27;;;19.30;99.90;;;-144.05;84.43;56984.78;6164508;23;20060;-87
2023/08/17 09:33:33;;;;;;;14.55;9.05;;;16.30;99.90;;;-144.05;84.31;56989.00;6164562;23;20029;-88
2023/08/17 09:36:12;;;;;;;18.23;13.63;;;19.90;99.90;;;-144.05;84.21;57012.38;6165800;23;20010;-87
2023/08/17 09:38:38;;;;;;;20.08;12.68;;;;;;;-144.05;84.02;56955.03;6167055;23;20013;-89
2023/08/17 09:41:06;;;;;;;18.63;13.70;;;19.90;99.90;;;-144.05;83.64;56976.28;6167935;23;20080;-87
2023/08/17 09:43:33;;;;;;;20.15;14.30;;;20.20;99.90;;;-144.05;83.04;57018.75;6166923;23;20256;-90
2023/08/17 09:46:02;;;;;;;23.67;13.63;;;;;;;-144.05;83.17;56997.50;6151494;23;20048;-80
2023/08/17 09:48:28;;;;;;;22.90;15.55;;;17.00;99.90;;;-144.05;82.92;56993.25;6149632;23;20014;-83
2023/08/17 09:50:59;;;;;;;21.98;15.25;;;18.70;99.90;;;-144.05;81.99;56991.13;6127322;23;20022;-83
2023/08/17 09:53:25;;;;;;;16.08;13.45;;;20.50;99.90;;;-144.05;80.94;56976.28;6126494;23;20006;-81
2023/08/17 09:55:53;;;;;;;23.23;15.38;;;;;;;-144.05;80.59;56967.78;6128495;23;20006;-84
2023/08/17 09:58:19;;;;;;;23.20;15.57;;;;;;;-144.05;79.55;56986.91;6126279;23;20006;-81
2023/08/17 10:00:49;;;;;;;22.52;15.40;;;17.60;99.90;;;-144.05;78.62;56986.91;6126187;23;20010;-81
2023/08/17 10:03:19;;;;;;;18.05;11.77;;;18.10;99.90;;;-144.05;78.22;57008.13;6125346;23;20074;-81
2023/08/17 10:06:00;;;;;;;16.85;11.52;;;19.90;99.90;;;-144.05;77.24;57014.50;6125541;23;20092;-82
2023/08/17 10:08:33;;;;;;;17.45;13.32;;;21.60;99.90;;;-144.05;74.72;56995.38;6127601;23;20002;-82
2023/08/17 10:11:04;;;;;;;19.35;13.70;;;20.10;99.90;;;-144.05;74.25;57010.25;6127362;23;20004;-85
2023/08/17 10:13:53;;;;;;;16.63;11.82;;;20.20;99.90;;;-144.05;74.80;56997.50;6126430;23;20016;-83
2023/08/17 10:17:13;;;;;;;15.18;11.90;;;20.20;99.90;;;-144.05;74.76;57003.88;6126772;23;20577;-84
2023/08/17 10:19:58;;;;;;;14.25;11.15;;;20.20;99.90;;;-144.05;73.64;57029.38;6121889;23;20010;-85
2023/08/17 10:22:52;;;;;;;12.93;9.27;;;20.20;99.90;;;-144.05;74.21;57016.63;6125015;23;20010;-81